Bellaire, MI

7:23 PM EDT on April 24, 2017 (GMT -0400)
Antrim County

Weather History for KACB - November, 2012

Change the Weather History Date:

Friday, November 2, 2012

  Actual Average (KCVX) Record (KCVX)
Temperature  
Mean Temperature 38 °F -  
Max Temperature 40 °F 59 °F 59 °F (2001)
Min Temperature 35 °F 43 °F 25 °F (2014)
Degree Days  
Heating Degree Days 28    
Moisture  
Dew Point 32 °F    
Average Humidity 81    
Maximum Humidity 91    
Minimum Humidity 65    
Precipitation  
Precipitation 0.00 in - - ()
Sea Level Pressure  
Sea Level Pressure 29.97 in    
Wind  
Wind Speed 7 mph (NNW)    
Max Wind Speed 12 mph    
Max Gust Speed 24 mph    
Visibility 9 miles    
Events Rain , Snow    
Averages and records for this station are not official NWS values.
T = Trace of Precipitation, MM = Missing Value Source: NWS Daily Summary

Daily Weather History Graph

Daily Weather History Graph

Search for Another Location

Airport or City:

Trip Planner

Search our weather history database for the weather conditions in past years. The results will help you decide how hot, cold, wet, or windy it might be!

Date:

Astronomy

Nov. 02, 2012 Rise Set
Actual Time 8:21 AM EDT 6:26 PM EDT
Civil Twilight 7:50 AM EDT 6:57 PM EDT
Nautical Twilight 7:15 AM EDT 7:32 PM EDT
Astronomical Twilight 6:41 AM EDT 8:06 PM EDT
Moon 9:07 PM EDT (11/2) 11:46 AM EDT (11/2)
Length of Visible Light 11h 06m
Length of Day
10h 05m
Waning Gibbous, 87% of the Moon is Illuminated
Nov 2
Waning Gibbous
Nov 6
Last Quarter
Nov 13
New
Nov 20
First Quarter
Nov 28
Full

Hourly Weather History & Observations

Time (EDT) Temp. Windchill Dew Point Humidity Pressure Visibility Wind Dir Wind Speed Gust Speed Precip Events Conditions
12:12 AM 39.2 °F 35.0 °F 32.0 °F 75% 29.80 in 10.0 mi NNW 5.8 mph - N/A   Overcast
12:32 AM 39.2 °F 35.0 °F 32.5 °F 77% 29.80 in 10.0 mi NNW 5.8 mph - N/A   Overcast
12:52 AM 38.3 °F 33.2 °F 33.3 °F 82% 29.81 in 10.0 mi NNW 6.9 mph - N/A Rain Light Rain
1:12 AM 38.3 °F 31.9 °F 33.1 °F 81% 29.81 in 10.0 mi NNW 9.2 mph - N/A Rain Light Rain
1:32 AM 37.8 °F 32.5 °F 33.8 °F 86% 29.82 in 7.0 mi North 6.9 mph - N/A Rain Light Rain
1:52 AM 36.9 °F 31.4 °F 33.4 °F 87% 29.82 in 7.0 mi NNW 6.9 mph - N/A Rain Light Rain
2:12 AM 36.5 °F 32.7 °F 32.9 °F 87% 29.82 in 10.0 mi NNW 4.6 mph 16.1 mph N/A Rain Light Rain
2:32 AM 36.5 °F 31.0 °F 32.5 °F 86% 29.83 in 7.0 mi NNW 6.9 mph 16.1 mph N/A Snow Light Snow
2:52 AM 36.7 °F 32.0 °F 32.0 °F 83% 29.84 in 10.0 mi NNW 5.8 mph - N/A   Overcast
3:12 AM 36.7 °F 31.2 °F 32.0 °F 83% 29.84 in 10.0 mi NNW 6.9 mph - N/A   Overcast
3:32 AM 36.5 °F 31.0 °F 32.0 °F 84% 29.85 in 7.0 mi NNW 6.9 mph - N/A Snow Light Snow
3:53 AM 35.8 °F 30.1 °F 32.0 °F 86% 29.85 in 10.0 mi NNW 6.9 mph 16.1 mph N/A   Overcast
4:12 AM 36.5 °F 32.7 °F 31.1 °F 81% 29.86 in 10.0 mi NNW 4.6 mph - N/A   Overcast
4:32 AM 36.7 °F 32.9 °F 31.1 °F 80% 29.86 in 10.0 mi NNE 4.6 mph - N/A   Overcast
4:53 AM 37.0 °F 29.8 °F 30.6 °F 77% 29.87 in 10.0 mi NNW 10.4 mph - N/A   Overcast
5:12 AM 37.4 °F 33.8 °F 29.8 °F 74% 29.87 in 10.0 mi North 4.6 mph - N/A   Overcast
5:32 AM 36.9 °F 33.1 °F 30.6 °F 78% 29.88 in 7.0 mi North 4.6 mph - N/A   Overcast
5:53 AM 36.0 °F 32.1 °F 31.6 °F 84% 29.89 in 10.0 mi North 4.6 mph - N/A   Overcast
6:12 AM 36.9 °F 29.1 °F 30.6 °F 78% 29.89 in 10.0 mi NW 11.5 mph 17.3 mph N/A   Overcast
6:32 AM 35.6 °F 29.2 °F 32.0 °F 87% 29.89 in 4.0 mi NNW 8.1 mph 18.4 mph N/A Snow Light Snow
6:52 AM 36.0 °F 29.6 °F 31.8 °F 85% 29.90 in 7.0 mi North 8.1 mph - N/A   Overcast
7:12 AM 36.0 °F 29.6 °F 32.0 °F 86% 29.91 in 7.0 mi NNW 8.1 mph 16.1 mph N/A   Overcast
7:33 AM 35.8 °F 30.9 °F 32.4 °F 87% 29.91 in 7.0 mi North 5.8 mph - N/A Snow Light Snow
7:52 AM 36.5 °F 29.7 °F 32.2 °F 84% 29.91 in 10.0 mi NNW 9.2 mph - N/A   Overcast
8:12 AM 36.9 °F 32.2 °F 31.5 °F 81% 29.92 in 10.0 mi NNW 5.8 mph - N/A   Overcast
8:33 AM 36.7 °F 29.9 °F 31.8 °F 83% 29.93 in 7.0 mi NNW 9.2 mph - N/A Snow Light Snow
8:52 AM 35.8 °F 30.1 °F 32.5 °F 88% 29.93 in 5.0 mi NNW 6.9 mph 16.1 mph N/A Snow Light Snow
9:12 AM 36.5 °F 32.7 °F 32.2 °F 84% 29.94 in 10.0 mi North 4.6 mph - N/A   Overcast
9:33 AM 37.2 °F 30.6 °F 32.0 °F 81% 29.94 in 10.0 mi NNW 9.2 mph 18.4 mph N/A   Overcast
9:52 AM 37.4 °F 32.1 °F 32.2 °F 81% 29.95 in 7.0 mi North 6.9 mph - N/A Snow Light Snow
10:12 AM 36.1 °F 29.3 °F 33.1 °F 89% 29.96 in 4.0 mi North 9.2 mph - N/A Snow Light Snow
10:33 AM 36.9 °F 30.7 °F 33.1 °F 86% 29.97 in 10.0 mi North 8.1 mph 17.3 mph N/A Rain Light Rain
10:52 AM 36.9 °F 32.2 °F 33.6 °F 88% 29.97 in 5.0 mi North 5.8 mph - N/A Snow Light Snow
11:12 AM 37.6 °F 34.0 °F 33.8 °F 86% 29.97 in 10.0 mi NNW 4.6 mph - N/A   Overcast
11:33 AM 37.9 °F 34.4 °F 33.4 °F 84% 29.98 in 10.0 mi NNW 4.6 mph - N/A   Overcast
11:52 AM 38.3 °F 34.8 °F 32.7 °F 80% 29.99 in 10.0 mi NNW 4.6 mph - N/A   Overcast
12:13 PM 37.9 °F 32.1 °F 32.0 °F 79% 29.99 in 10.0 mi NNW 8.1 mph 17.3 mph N/A   Overcast
12:33 PM 38.3 °F 31.4 °F 32.9 °F 81% 30.00 in 10.0 mi North 10.4 mph - N/A   Overcast
12:52 PM 38.3 °F 33.2 °F 33.1 °F 81% 30.00 in 10.0 mi North 6.9 mph - N/A   Overcast
1:13 PM 37.8 °F 33.3 °F 33.3 °F 84% 30.01 in 7.0 mi North 5.8 mph - N/A Rain Light Rain
1:32 PM 39.2 °F 35.0 °F 33.4 °F 80% 30.01 in 10.0 mi North 5.8 mph - N/A   Overcast
1:52 PM 39.9 °F 33.9 °F 32.9 °F 76% 30.01 in 10.0 mi NW 9.2 mph - N/A   Overcast
2:13 PM 40.1 °F 33.2 °F 31.1 °F 70% 30.01 in 10.0 mi NNW 11.5 mph 19.6 mph N/A   Overcast
2:32 PM 39.4 °F 32.3 °F 31.3 °F 73% 30.01 in 10.0 mi NW 11.5 mph 24.2 mph N/A Rain Light Rain
2:52 PM 40.1 °F 33.2 °F 30.7 °F 69% 30.01 in 10.0 mi NNW 11.5 mph 19.6 mph N/A   Overcast
3:13 PM 39.4 °F 34.5 °F 31.6 °F 74% 30.02 in 10.0 mi NNW 6.9 mph - N/A   Overcast
3:32 PM 40.3 °F 34.9 °F 30.6 °F 68% 30.02 in 10.0 mi NNW 8.1 mph 16.1 mph N/A   Overcast
3:53 PM 40.6 °F 35.4 °F 30.7 °F 68% 30.02 in 10.0 mi North 8.1 mph - N/A   Overcast
4:13 PM 40.8 °F 36.2 °F 29.8 °F 65% 30.03 in 10.0 mi NNW 6.9 mph - N/A   Overcast
4:32 PM 38.7 °F 34.3 °F 31.8 °F 76% 30.03 in 10.0 mi NNW 5.8 mph 18.4 mph N/A   Overcast
4:53 PM 38.7 °F 33.6 °F 32.0 °F 77% 30.04 in 10.0 mi NNW 6.9 mph - N/A   Overcast
5:13 PM 39.0 °F 34.0 °F 32.0 °F 76% 30.04 in 10.0 mi NNW 6.9 mph - N/A   Overcast
5:32 PM 37.9 °F 32.7 °F 32.0 °F 79% 30.05 in 10.0 mi NNW 6.9 mph - N/A Rain Light Rain
5:53 PM 37.8 °F 31.8 °F 32.0 °F 80% 30.05 in 10.0 mi NNW 8.1 mph - N/A   Overcast
6:13 PM 37.4 °F 33.8 °F 32.4 °F 82% 30.06 in 10.0 mi NNW 4.6 mph - N/A Snow Light Snow
6:32 PM 37.8 °F 31.8 °F 32.0 °F 80% 30.06 in 10.0 mi NNW 8.1 mph - N/A   Overcast
6:53 PM 37.8 °F 32.5 °F 32.0 °F 80% 30.07 in 10.0 mi NNW 6.9 mph - N/A   Overcast
7:12 PM 37.4 °F 32.1 °F 32.0 °F 81% 30.08 in 10.0 mi NNW 6.9 mph - N/A   Overcast
7:32 PM 37.0 °F 33.3 °F 32.5 °F 84% 30.08 in 10.0 mi NNW 4.6 mph - N/A   Overcast
7:53 PM 37.0 °F - 32.5 °F 84% 30.08 in 10.0 mi Calm Calm - N/A   Overcast
8:12 PM 37.0 °F 33.3 °F 32.5 °F 84% 30.09 in 10.0 mi North 4.6 mph - N/A Rain Rain
8:33 PM 36.9 °F 33.1 °F 33.1 °F 86% 30.09 in 10.0 mi North 4.6 mph - N/A   Overcast
8:52 PM 37.2 °F 33.6 °F 32.0 °F 81% 30.09 in 10.0 mi NNW 4.6 mph - N/A   Overcast
9:13 PM 36.9 °F 33.1 °F 31.8 °F 82% 30.09 in 10.0 mi NNW 4.6 mph - N/A   Overcast
9:33 PM 36.5 °F 32.7 °F 31.8 °F 83% 30.09 in 10.0 mi North 4.6 mph - N/A   Overcast
9:52 PM 36.1 °F 32.3 °F 31.8 °F 84% 30.10 in 10.0 mi NNW 4.6 mph - N/A   Mostly Cloudy
10:13 PM 36.3 °F - 31.8 °F 84% 30.11 in 10.0 mi Calm Calm - N/A   Mostly Cloudy
10:32 PM 36.1 °F 33.5 °F 32.0 °F 85% 30.11 in 10.0 mi NNW 3.5 mph - N/A   Mostly Cloudy
10:53 PM 36.0 °F 33.3 °F 32.0 °F 86% 30.12 in 10.0 mi NNW 3.5 mph - N/A Rain Light Rain
11:32 PM 35.6 °F 32.8 °F 32.4 °F 88% 30.12 in 5.0 mi North 3.5 mph - N/A Snow Light Snow
11:52 PM 35.4 °F - 32.9 °F 91% 30.12 in 7.0 mi Calm Calm - N/A Snow Light Snow